EB5EEV-10 Weather Reports


Display with metric or nautical units.
time (UTC)temp
F
wind
direction
speed
MPH
gust
MPH
rain 1hr
in
rain 24hr
in
rain mn
in
humidity
%
barometer
mb
20221130225758 0 0 0.0 0.0 0.00 0.00 0.00 100
20221130224116 0 0 0.0 0.0 0.00 0.00 0.00 100
20221130222345 54 0 0.0 0.0 0.00 0.00 0.00 8 1013.9
20221130220547 54 0 0.0 0.0 0.00 0.00 0.00 8 1013.9
20221130214807 0 0 0.0 0.0 0.00 0.00 0.00 100
20221130213107 0 0 0.0 0.0 0.00 0.00 0.00 100
20221130211256 0 0 0.0 0.0 0.00 0.00 0.00 100
20221130205406 53 270 0.0 2.0 0.00 0.00 0.00 8 1013.9
20221130203601 53 0 0.0 0.0 0.00 0.00 0.00 8 1013.9
20221130201700 53 0 0.0 0.0 0.00 0.00 0.00 8 1013.8
20221130195906 53 270 1.0 3.0 0.00 0.00 0.00 8 1013.9
20221130194107 53 0 0.0 0.0 0.00 0.00 0.00 8 1013.9
20221130192315 54 0 0.0 0.0 0.00 0.00 0.00 8 1013.7
20221130190605 54 0 0.0 1.0 0.00 0.00 0.00 8 1013.6
20221130184815 54 0 0.0 0.0 0.00 0.00 0.00 8 1013.3
20221130175255 56 0 0.0 2.0 0.00 0.00 0.00 7 1013.2
20221130173355 56 270 3.0 6.0 0.00 0.00 0.00 7 1013.2
20221130171730 57 270 2.0 3.0 0.00 0.00 0.00 7 1013.2
20221130165927 57 270 3.0 5.0 0.00 0.00 0.00 7 1013.4
20221130164200 57 270 2.0 3.0 0.00 0.00 0.00 7 1013.3
20221130162245 59 270 1.0 3.0 0.00 0.00 0.00 7 1013.1
20221130160415 59 0 0.0 0.0 0.00 0.00 0.00 7 1013.3
20221130154534 0 0 0.0 0.0 0.00 0.00 0.00 100
20221130152801 0 0 0.0 0.0 0.00 0.00 0.00 100
20221130150930 0 0 0.0 0.0 0.00 0.00 0.00 100
20221130145152 60 0 0.0 2.0 0.00 0.00 0.00 6 1013.2
20221130141451 60 90 3.0 12.0 0.00 0.00 0.00 6 1013.6
20221130133808 0 0 0.0 0.0 0.00 0.00 0.00 100
20221130131931 0 0 0.0 0.0 0.00 0.00 0.00 100
20221130130156 0 0 0.0 0.0 0.00 0.00 0.00 100
20221130124326 0 0 0.0 0.0 0.00 0.00 0.00 100
20221130122548 0 0 0.0 0.0 0.00 0.00 0.00 100
20221130114906 0 0 0.0 0.0 0.00 0.00 0.00 100
20221130113012 0 0 0.0 0.0 0.00 0.00 0.00 100
20221130111136 61 0 0.0 0.0 0.00 0.00 0.00 4 1015.3
20221130105259 60 0 0.0 0.0 0.00 0.00 0.00 4 1015.6
20221130103506 59 0 0.0 0.0 0.00 0.00 0.00 4 1015.5
20221130101746 58 0 0.0 0.0 0.00 0.00 0.00 5 1016.0
20221130095949 57 270 1.0 2.0 0.00 0.00 0.00 5 1015.8
20221130094256 56 0 0.0 0.0 0.00 0.00 0.00 5 1016.1
20221130092439 54 0 0.0 0.0 0.00 0.00 0.00 6 1016.4
20221130090831 53 0 0.0 1.0 0.00 0.00 0.00 6 1015.9
20221130084931 53 270 2.0 4.0 0.00 0.00 0.00 6 1015.8
20221130083131 52 0 0.0 0.0 0.00 0.00 0.00 6 1015.9
20221130081341 51 270 0.0 3.0 0.00 0.00 0.00 6 1016.0
20221130075610 0 0 0.0 0.0 0.00 0.00 0.00 100
20221130073741 51 270 0.0 1.0 0.00 0.00 0.00 6 1015.3
20221130071930 51 270 0.0 2.0 0.00 0.00 0.00 6 1015.4
20221130070047 51 0 0.0 0.0 0.00 0.00 0.00 6 1015.5
20221130064209 51 0 0.0 1.0 0.00 0.00 0.00 6 1015.1
20221130060416 51 0 0.0 0.0 0.00 0.00 0.00 6 1015.1
20221130054811 51 270 0.0 2.0 0.00 0.00 0.00 6 1015.1
20221130052931 52 270 0.0 1.0 0.00 0.00 0.00 6 1015.0
20221130051101 52 0 0.0 0.0 0.00 0.00 0.00 6 1015.0
20221130045301 53 270 0.0 2.0 0.00 0.00 0.00 6 1015.0
20221130043339 55 270 1.0 3.0 0.00 0.00 0.00 5 1015.1
20221130041601 53 270 0.0 2.0 0.00 0.00 0.00 5 1015.1
20221130035854 53 0 0.0 0.0 0.00 0.00 0.00 5 1015.1
20221130034041 0 0 0.0 0.0 0.00 0.00 0.00 100
20221130032410 54 0 0.0 0.0 0.00 0.00 0.00 5 1015.0
20221130030637 54 0 0.0 1.0 0.00 0.00 0.00 5 1015.1
20221130024816 56 0 0.0 0.0 0.00 0.00 0.00 5 1015.0
20221130022916 55 0 0.0 1.0 0.00 0.00 0.00 5 1015.0
20221130021131 55 270 1.0 3.0 0.00 0.00 0.00 5 1015.1
20221130015239 0 0 0.0 0.0 0.00 0.00 0.00 100
20221130013616 55 0 0.0 0.0 0.00 0.00 0.00 5 1015.3
20221130011711 55 270 2.0 3.0 0.00 0.00 0.00 5 1015.2
20221130004206 55 0 0.0 0.0 0.00 0.00 0.00 5 1015.1
20221130002447 57 270 2.0 3.0 0.00 0.00 0.00 4 1015.5
20221130000811 58 270 3.0 4.0 0.00 0.00 0.00 5 1015.3
20221129234916 54 0 0.0 0.0 0.00 0.00 0.00 5 1015.7
20221129233047 54 0 0.0 0.0 0.00 0.00 0.00 5 1015.8